sensor_id;sensor_type;location;lat;lon;timestamp;pressure;altitude;pressure_sealevel;temperature;humidity
33422;BME280;19763;55.798;37.782;2022-12-08T00:01:33;100161.28;;;-8.70;77.29
33422;BME280;19763;55.798;37.782;2022-12-08T00:04:00;100180.59;;;-8.56;77.02
33422;BME280;19763;55.798;37.782;2022-12-08T00:06:34;100182.25;;;-8.56;76.50
33422;BME280;19763;55.798;37.782;2022-12-08T00:12:01;100126.34;;;-8.67;76.32
33422;BME280;19763;55.798;37.782;2022-12-08T00:14:28;100155.94;;;-8.35;77.42
33422;BME280;19763;55.798;37.782;2022-12-08T00:16:54;100147.09;;;-8.28;75.76
33422;BME280;19763;55.798;37.782;2022-12-08T00:19:20;100164.03;;;-8.39;76.31
33422;BME280;19763;55.798;37.782;2022-12-08T00:21:48;100154.84;;;-8.38;76.91
33422;BME280;19763;55.798;37.782;2022-12-08T00:24:13;100142.06;;;-8.28;76.72
33422;BME280;19763;55.798;37.782;2022-12-08T00:26:39;100141.97;;;-8.44;76.44
33422;BME280;19763;55.798;37.782;2022-12-08T00:29:05;100126.72;;;-8.47;77.15
33422;BME280;19763;55.798;37.782;2022-12-08T00:31:30;100133.78;;;-8.27;76.99
33422;BME280;19763;55.798;37.782;2022-12-08T00:33:57;100132.78;;;-8.16;75.33
33422;BME280;19763;55.798;37.782;2022-12-08T00:36:23;100126.03;;;-8.17;76.34
33422;BME280;19763;55.798;37.782;2022-12-08T00:38:48;100125.34;;;-8.14;76.06
33422;BME280;19763;55.798;37.782;2022-12-08T00:41:17;100111.09;;;-8.28;75.93
33422;BME280;19763;55.798;37.782;2022-12-08T00:43:43;100117.53;;;-8.19;76.09
33422;BME280;19763;55.798;37.782;2022-12-08T00:46:09;100117.72;;;-8.16;75.97
33422;BME280;19763;55.798;37.782;2022-12-08T00:48:34;100126.63;;;-8.21;75.70
33422;BME280;19763;55.798;37.782;2022-12-08T00:51:00;100131.25;;;-8.13;75.71
33422;BME280;19763;55.798;37.782;2022-12-08T00:53:26;100134.03;;;-8.09;75.91
33422;BME280;19763;55.798;37.782;2022-12-08T00:55:51;100114.28;;;-8.03;75.43
33422;BME280;19763;55.798;37.782;2022-12-08T00:58:17;100111.38;;;-7.95;75.17
33422;BME280;19763;55.798;37.782;2022-12-08T01:00:43;100122.06;;;-8.13;75.42
33422;BME280;19763;55.798;37.782;2022-12-08T01:03:12;100116.25;;;-8.40;76.33
33422;BME280;19763;55.798;37.782;2022-12-08T01:05:38;100117.94;;;-8.26;75.41
33422;BME280;19763;55.798;37.782;2022-12-08T01:08:07;100124.72;;;-8.25;75.21
33422;BME280;19763;55.798;37.782;2022-12-08T01:10:37;100118.34;;;-8.33;76.05
33422;BME280;19763;55.798;37.782;2022-12-08T01:13:04;100115.84;;;-8.33;75.82
33422;BME280;19763;55.798;37.782;2022-12-08T01:15:29;100117.69;;;-8.02;75.52
33422;BME280;19763;55.798;37.782;2022-12-08T01:17:55;100117.75;;;-8.42;75.90
33422;BME280;19763;55.798;37.782;2022-12-08T01:20:21;100116.09;;;-8.15;75.70
33422;BME280;19763;55.798;37.782;2022-12-08T01:22:46;100113.22;;;-8.35;75.63
33422;BME280;19763;55.798;37.782;2022-12-08T01:25:12;100108.56;;;-8.15;76.51
33422;BME280;19763;55.798;37.782;2022-12-08T01:27:38;100116.00;;;-8.30;75.92
33422;BME280;19763;55.798;37.782;2022-12-08T01:30:05;100113.88;;;-8.24;76.33
33422;BME280;19763;55.798;37.782;2022-12-08T01:32:31;100117.91;;;-8.12;76.20
33422;BME280;19763;55.798;37.782;2022-12-08T01:34:56;100112.41;;;-8.20;76.55
33422;BME280;19763;55.798;37.782;2022-12-08T01:37:22;100115.56;;;-8.09;75.95
33422;BME280;19763;55.798;37.782;2022-12-08T01:39:47;100126.31;;;-8.12;75.72
33422;BME280;19763;55.798;37.782;2022-12-08T01:42:19;100116.25;;;-8.40;76.77
33422;BME280;19763;55.798;37.782;2022-12-08T01:44:59;100128.38;;;-8.33;76.47
33422;BME280;19763;55.798;37.782;2022-12-08T01:47:35;100092.06;;;-8.38;77.11
33422;BME280;19763;55.798;37.782;2022-12-08T01:50:05;100117.72;;;-8.16;76.49
33422;BME280;19763;55.798;37.782;2022-12-08T01:52:38;100094.66;;;-8.23;77.07
33422;BME280;19763;55.798;37.782;2022-12-08T01:55:17;100107.91;;;-8.26;76.95
33422;BME280;19763;55.798;37.782;2022-12-08T01:57:50;100099.78;;;-8.22;76.91
33422;BME280;19763;55.798;37.782;2022-12-08T02:00:19;100091.25;;;-8.24;76.72
33422;BME280;19763;55.798;37.782;2022-12-08T02:02:52;100113.47;;;-8.17;77.60
33422;BME280;19763;55.798;37.782;2022-12-08T02:05:20;100128.53;;;-8.17;77.68
33422;BME280;19763;55.798;37.782;2022-12-08T02:07:47;100117.06;;;-7.98;77.54
33422;BME280;19763;55.798;37.782;2022-12-08T02:10:17;100123.44;;;-7.90;76.20
33422;BME280;19763;55.798;37.782;2022-12-08T02:12:43;100106.41;;;-8.22;77.00
33422;BME280;19763;55.798;37.782;2022-12-08T02:15:09;100106.56;;;-8.34;77.36
33422;BME280;19763;55.798;37.782;2022-12-08T02:28:19;100100.69;;;-8.06;77.10
33422;BME280;19763;55.798;37.782;2022-12-08T02:30:49;100078.84;;;-8.36;77.07
33422;BME280;19763;55.798;37.782;2022-12-08T02:36:21;100111.34;;;-8.24;76.90
33422;BME280;19763;55.798;37.782;2022-12-08T02:39:16;100071.75;;;-8.28;77.31
33422;BME280;19763;55.798;37.782;2022-12-08T02:41:54;100101.41;;;-7.94;77.59
33422;BME280;19763;55.798;37.782;2022-12-08T02:45:13;100095.19;;;-7.86;77.21
33422;BME280;19763;55.798;37.782;2022-12-08T02:47:21;100054.59;;;-8.35;77.05
33422;BME280;19763;55.798;37.782;2022-12-08T02:49:47;100082.41;;;-8.04;77.05
33422;BME280;19763;55.798;37.782;2022-12-08T02:54:49;100044.59;;;-8.20;76.64
33422;BME280;19763;55.798;37.782;2022-12-08T02:57:34;100073.00;;;-7.93;77.14
33422;BME280;19763;55.798;37.782;2022-12-08T03:00:10;100061.63;;;-8.01;76.19
33422;BME280;19763;55.798;37.782;2022-12-08T03:08:42;100071.84;;;-7.98;76.34
33422;BME280;19763;55.798;37.782;2022-12-08T03:11:43;100072.72;;;-7.98;76.12
33422;BME280;19763;55.798;37.782;2022-12-08T03:14:15;100038.59;;;-8.22;77.16
33422;BME280;19763;55.798;37.782;2022-12-08T03:16:44;100033.47;;;-8.24;76.35
33422;BME280;19763;55.798;37.782;2022-12-08T03:19:17;100028.69;;;-8.06;76.79
33422;BME280;19763;55.798;37.782;2022-12-08T03:21:48;100030.75;;;-8.13;76.40
33422;BME280;19763;55.798;37.782;2022-12-08T03:24:16;100009.44;;;-8.63;77.68
33422;BME280;19763;55.798;37.782;2022-12-08T03:26:56;100047.94;;;-8.35;77.92
33422;BME280;19763;55.798;37.782;2022-12-08T03:29:24;100049.13;;;-8.15;77.06
33422;BME280;19763;55.798;37.782;2022-12-08T03:31:53;100043.25;;;-8.15;77.61
33422;BME280;19763;55.798;37.782;2022-12-08T03:34:25;100035.47;;;-8.33;76.64
33422;BME280;19763;55.798;37.782;2022-12-08T03:36:52;100040.91;;;-8.40;77.49
33422;BME280;19763;55.798;37.782;2022-12-08T03:39:18;100035.13;;;-8.24;77.57
33422;BME280;19763;55.798;37.782;2022-12-08T03:41:44;100040.41;;;-8.06;77.27
33422;BME280;19763;55.798;37.782;2022-12-08T03:44:11;100038.34;;;-8.27;76.01
33422;BME280;19763;55.798;37.782;2022-12-08T03:46:36;100042.69;;;-8.24;76.57
33422;BME280;19763;55.798;37.782;2022-12-08T03:49:02;100046.94;;;-8.23;77.31
33422;BME280;19763;55.798;37.782;2022-12-08T03:51:28;100061.69;;;-8.15;76.87
33422;BME280;19763;55.798;37.782;2022-12-08T03:53:53;100036.41;;;-8.31;77.18
33422;BME280;19763;55.798;37.782;2022-12-08T03:56:31;100021.09;;;-8.36;76.82
33422;BME280;19763;55.798;37.782;2022-12-08T03:58:58;100049.47;;;-8.08;77.02
33422;BME280;19763;55.798;37.782;2022-12-08T04:01:23;100040.53;;;-8.18;76.79
33422;BME280;19763;55.798;37.782;2022-12-08T04:03:49;100030.09;;;-8.39;77.03
33422;BME280;19763;55.798;37.782;2022-12-08T04:06:15;100022.91;;;-8.33;76.76
33422;BME280;19763;55.798;37.782;2022-12-08T04:08:41;100026.78;;;-8.38;77.80
33422;BME280;19763;55.798;37.782;2022-12-08T04:11:07;100025.34;;;-8.20;77.96
33422;BME280;19763;55.798;37.782;2022-12-08T04:13:34;100032.94;;;-8.05;77.76
33422;BME280;19763;55.798;37.782;2022-12-08T04:16:00;100022.72;;;-8.08;76.69
33422;BME280;19763;55.798;37.782;2022-12-08T04:18:26;100021.94;;;-8.35;78.72
33422;BME280;19763;55.798;37.782;2022-12-08T04:20:52;100017.22;;;-8.16;78.89
33422;BME280;19763;55.798;37.782;2022-12-08T04:23:17;100015.06;;;-8.09;78.28
33422;BME280;19763;55.798;37.782;2022-12-08T04:25:43;100014.28;;;-8.08;78.13
33422;BME280;19763;55.798;37.782;2022-12-08T04:28:09;100014.38;;;-8.22;77.59
33422;BME280;19763;55.798;37.782;2022-12-08T04:30:34;100016.13;;;-8.21;78.68
33422;BME280;19763;55.798;37.782;2022-12-08T04:33:00;100016.38;;;-8.16;78.45
33422;BME280;19763;55.798;37.782;2022-12-08T04:35:26;100026.75;;;-8.25;79.16
33422;BME280;19763;55.798;37.782;2022-12-08T04:37:52;100016.56;;;-8.13;78.62
33422;BME280;19763;55.798;37.782;2022-12-08T04:40:18;100026.25;;;-8.04;79.81
33422;BME280;19763;55.798;37.782;2022-12-08T04:42:43;100021.31;;;-8.18;79.55
33422;BME280;19763;55.798;37.782;2022-12-08T04:45:09;100009.44;;;-8.77;79.49
33422;BME280;19763;55.798;37.782;2022-12-08T04:47:35;100025.66;;;-8.43;80.85
33422;BME280;19763;55.798;37.782;2022-12-08T04:50:00;100029.84;;;-8.29;80.34
33422;BME280;19763;55.798;37.782;2022-12-08T04:52:26;100010.78;;;-8.25;80.64
33422;BME280;19763;55.798;37.782;2022-12-08T04:54:52;100020.66;;;-8.28;79.91
33422;BME280;19763;55.798;37.782;2022-12-08T04:57:17;100022.97;;;-8.03;80.37
33422;BME280;19763;55.798;37.782;2022-12-08T04:59:43;100025.53;;;-8.17;80.84
33422;BME280;19763;55.798;37.782;2022-12-08T05:02:08;100024.34;;;-8.52;80.90
33422;BME280;19763;55.798;37.782;2022-12-08T05:04:34;100027.94;;;-8.33;81.70
33422;BME280;19763;55.798;37.782;2022-12-08T05:06:59;100026.94;;;-8.22;81.10
33422;BME280;19763;55.798;37.782;2022-12-08T05:09:25;100034.06;;;-8.28;80.87
33422;BME280;19763;55.798;37.782;2022-12-08T05:11:51;100016.81;;;-8.37;80.20
33422;BME280;19763;55.798;37.782;2022-12-08T05:14:18;100008.09;;;-8.43;81.23
33422;BME280;19763;55.798;37.782;2022-12-08T05:16:45;100005.25;;;-8.20;80.78
33422;BME280;19763;55.798;37.782;2022-12-08T05:19:11;100011.34;;;-8.01;81.11
33422;BME280;19763;55.798;37.782;2022-12-08T05:21:37;100011.69;;;-8.10;81.29
33422;BME280;19763;55.798;37.782;2022-12-08T05:24:03;99996.53;;;-8.26;80.33
33422;BME280;19763;55.798;37.782;2022-12-08T05:26:29;100005.41;;;-8.32;80.55
33422;BME280;19763;55.798;37.782;2022-12-08T05:28:55;99949.53;;;-8.57;80.38
33422;BME280;19763;55.798;37.782;2022-12-08T05:31:20;100010.84;;;-8.39;80.18
33422;BME280;19763;55.798;37.782;2022-12-08T05:33:48;100011.88;;;-8.35;80.82
33422;BME280;19763;55.798;37.782;2022-12-08T05:36:15;99994.31;;;-8.50;80.73
33422;BME280;19763;55.798;37.782;2022-12-08T05:38:41;100018.00;;;-8.17;80.45
33422;BME280;19763;55.798;37.782;2022-12-08T05:41:08;100016.31;;;-8.31;80.69
33422;BME280;19763;55.798;37.782;2022-12-08T05:43:34;100002.91;;;-8.32;80.45
33422;BME280;19763;55.798;37.782;2022-12-08T05:46:00;100003.91;;;-8.43;80.65
33422;BME280;19763;55.798;37.782;2022-12-08T05:48:26;99994.81;;;-8.41;80.86
33422;BME280;19763;55.798;37.782;2022-12-08T05:50:52;100003.81;;;-8.16;79.76
33422;BME280;19763;55.798;37.782;2022-12-08T05:53:19;100012.69;;;-8.36;79.43
33422;BME280;19763;55.798;37.782;2022-12-08T05:55:45;100006.44;;;-8.58;80.42
33422;BME280;19763;55.798;37.782;2022-12-08T05:58:13;100007.25;;;-8.29;79.55
33422;BME280;19763;55.798;37.782;2022-12-08T06:00:40;100008.38;;;-8.24;79.59
33422;BME280;19763;55.798;37.782;2022-12-08T06:03:05;100007.78;;;-8.63;79.87
33422;BME280;19763;55.798;37.782;2022-12-08T06:05:32;100002.16;;;-8.59;79.58
33422;BME280;19763;55.798;37.782;2022-12-08T06:07:58;100014.72;;;-8.44;79.56
33422;BME280;19763;55.798;37.782;2022-12-08T06:10:24;100000.38;;;-8.46;80.29
33422;BME280;19763;55.798;37.782;2022-12-08T06:12:49;100007.84;;;-8.33;79.61
33422;BME280;19763;55.798;37.782;2022-12-08T06:15:15;100004.09;;;-8.40;79.00
33422;BME280;19763;55.798;37.782;2022-12-08T06:17:40;100005.50;;;-8.45;79.76
33422;BME280;19763;55.798;37.782;2022-12-08T06:20:06;100007.00;;;-8.19;79.75
33422;BME280;19763;55.798;37.782;2022-12-08T06:22:32;100000.19;;;-8.50;79.53
33422;BME280;19763;55.798;37.782;2022-12-08T06:24:58;100003.50;;;-8.51;79.24
33422;BME280;19763;55.798;37.782;2022-12-08T06:27:23;100010.31;;;-8.48;80.36
33422;BME280;19763;55.798;37.782;2022-12-08T06:29:49;100001.50;;;-8.70;80.06
33422;BME280;19763;55.798;37.782;2022-12-08T06:32:14;99996.38;;;-8.58;80.01
33422;BME280;19763;55.798;37.782;2022-12-08T06:34:40;100007.06;;;-8.32;81.21
33422;BME280;19763;55.798;37.782;2022-12-08T06:37:06;100005.94;;;-8.52;80.27
33422;BME280;19763;55.798;37.782;2022-12-08T06:39:31;99992.50;;;-8.38;80.48
33422;BME280;19763;55.798;37.782;2022-12-08T06:41:57;99996.94;;;-8.34;80.47
33422;BME280;19763;55.798;37.782;2022-12-08T06:44:41;100005.00;;;-8.24;80.64
33422;BME280;19763;55.798;37.782;2022-12-08T06:47:07;100008.06;;;-8.15;81.02
33422;BME280;19763;55.798;37.782;2022-12-08T06:49:33;99997.44;;;-8.39;80.53
33422;BME280;19763;55.798;37.782;2022-12-08T06:51:58;99991.22;;;-8.46;79.57
33422;BME280;19763;55.798;37.782;2022-12-08T06:54:24;99991.63;;;-8.53;79.80
33422;BME280;19763;55.798;37.782;2022-12-08T06:56:49;99997.09;;;-8.45;79.45
33422;BME280;19763;55.798;37.782;2022-12-08T06:59:15;100006.66;;;-8.25;79.55
33422;BME280;19763;55.798;37.782;2022-12-08T07:01:41;99997.91;;;-8.17;80.59
33422;BME280;19763;55.798;37.782;2022-12-08T07:04:07;99994.72;;;-8.42;79.55
33422;BME280;19763;55.798;37.782;2022-12-08T07:06:33;99996.09;;;-8.19;78.81
33422;BME280;19763;55.798;37.782;2022-12-08T07:08:58;99999.66;;;-8.16;79.72
33422;BME280;19763;55.798;37.782;2022-12-08T07:11:24;99980.13;;;-8.50;79.78
33422;BME280;19763;55.798;37.782;2022-12-08T07:13:50;99997.03;;;-8.17;80.24
33422;BME280;19763;55.798;37.782;2022-12-08T07:16:15;99997.69;;;-8.50;79.01
33422;BME280;19763;55.798;37.782;2022-12-08T07:18:41;99983.47;;;-8.21;78.58
33422;BME280;19763;55.798;37.782;2022-12-08T07:21:11;99988.78;;;-8.44;78.87
33422;BME280;19763;55.798;37.782;2022-12-08T07:23:39;99992.78;;;-8.18;78.59
33422;BME280;19763;55.798;37.782;2022-12-08T07:26:08;99971.59;;;-8.23;79.28
33422;BME280;19763;55.798;37.782;2022-12-08T07:28:37;99967.59;;;-8.20;77.63
33422;BME280;19763;55.798;37.782;2022-12-08T07:31:04;99987.84;;;-8.17;78.31
33422;BME280;19763;55.798;37.782;2022-12-08T07:33:32;99997.31;;;-8.12;77.79
33422;BME280;19763;55.798;37.782;2022-12-08T07:36:00;100003.44;;;-8.22;77.56
33422;BME280;19763;55.798;37.782;2022-12-08T07:38:26;99994.72;;;-8.14;77.83
33422;BME280;19763;55.798;37.782;2022-12-08T07:40:53;100004.22;;;-8.23;77.52
33422;BME280;19763;55.798;37.782;2022-12-08T07:43:20;99991.59;;;-8.10;77.40
33422;BME280;19763;55.798;37.782;2022-12-08T07:45:46;99996.47;;;-7.98;77.08
33422;BME280;19763;55.798;37.782;2022-12-08T07:48:12;100001.50;;;-7.83;76.99
33422;BME280;19763;55.798;37.782;2022-12-08T07:50:38;99990.22;;;-7.90;77.25
33422;BME280;19763;55.798;37.782;2022-12-08T07:53:04;99996.81;;;-7.92;77.22
33422;BME280;19763;55.798;37.782;2022-12-08T07:55:32;99977.06;;;-7.86;76.88
33422;BME280;19763;55.798;37.782;2022-12-08T07:57:58;99984.00;;;-7.96;77.08
33422;BME280;19763;55.798;37.782;2022-12-08T08:00:23;99978.53;;;-8.04;77.46
33422;BME280;19763;55.798;37.782;2022-12-08T08:02:51;99971.59;;;-8.08;76.96
33422;BME280;19763;55.798;37.782;2022-12-08T08:05:17;99972.63;;;-7.90;77.17
33422;BME280;19763;55.798;37.782;2022-12-08T08:07:42;99966.31;;;-7.68;77.73
33422;BME280;19763;55.798;37.782;2022-12-08T08:10:10;99934.59;;;-7.96;76.67
33422;BME280;19763;55.798;37.782;2022-12-08T08:12:36;99947.75;;;-7.85;76.61
33422;BME280;19763;55.798;37.782;2022-12-08T08:15:03;99965.47;;;-7.84;76.50
33422;BME280;19763;55.798;37.782;2022-12-08T08:17:30;99956.59;;;-7.62;77.32
33422;BME280;19763;55.798;37.782;2022-12-08T08:19:55;99955.38;;;-7.69;76.97
33422;BME280;19763;55.798;37.782;2022-12-08T08:22:21;99958.09;;;-7.81;76.26
33422;BME280;19763;55.798;37.782;2022-12-08T08:24:47;99963.19;;;-7.79;76.58
33422;BME280;19763;55.798;37.782;2022-12-08T08:27:12;99947.94;;;-7.52;77.18
33422;BME280;19763;55.798;37.782;2022-12-08T08:29:38;99944.19;;;-7.74;76.02
33422;BME280;19763;55.798;37.782;2022-12-08T08:32:04;99950.88;;;-7.59;76.14
33422;BME280;19763;55.798;37.782;2022-12-08T08:34:29;99950.38;;;-7.69;76.03
33422;BME280;19763;55.798;37.782;2022-12-08T08:36:55;99949.84;;;-7.63;76.53
33422;BME280;19763;55.798;37.782;2022-12-08T08:39:21;99944.13;;;-7.60;76.39
33422;BME280;19763;55.798;37.782;2022-12-08T08:41:46;99938.56;;;-7.70;76.04
33422;BME280;19763;55.798;37.782;2022-12-08T08:44:13;99967.34;;;-7.65;75.75
33422;BME280;19763;55.798;37.782;2022-12-08T08:46:40;99954.09;;;-7.62;77.26
33422;BME280;19763;55.798;37.782;2022-12-08T08:49:05;99951.22;;;-7.68;76.63
33422;BME280;19763;55.798;37.782;2022-12-08T08:51:32;99954.34;;;-7.57;76.39
33422;BME280;19763;55.798;37.782;2022-12-08T08:53:57;99949.38;;;-7.56;76.86
33422;BME280;19763;55.798;37.782;2022-12-08T08:56:23;99950.97;;;-7.58;76.61
33422;BME280;19763;55.798;37.782;2022-12-08T08:58:51;99952.44;;;-7.47;77.31
33422;BME280;19763;55.798;37.782;2022-12-08T09:01:20;99936.03;;;-7.55;77.17
33422;BME280;19763;55.798;37.782;2022-12-08T09:03:47;99927.09;;;-7.50;77.25
33422;BME280;19763;55.798;37.782;2022-12-08T09:06:14;99948.53;;;-7.56;76.21
33422;BME280;19763;55.798;37.782;2022-12-08T09:08:41;99928.50;;;-7.55;76.83
33422;BME280;19763;55.798;37.782;2022-12-08T09:11:07;99948.13;;;-7.33;76.61
33422;BME280;19763;55.798;37.782;2022-12-08T09:13:33;99944.44;;;-7.54;76.73
33422;BME280;19763;55.798;37.782;2022-12-08T09:16:00;99931.72;;;-7.57;76.78
33422;BME280;19763;55.798;37.782;2022-12-08T09:21:15;99956.72;;;-7.44;77.03
33422;BME280;19763;55.798;37.782;2022-12-08T09:23:44;99956.53;;;-7.64;77.67
33422;BME280;19763;55.798;37.782;2022-12-08T09:26:10;99956.41;;;-7.50;77.99
33422;BME280;19763;55.798;37.782;2022-12-08T09:28:37;99962.56;;;-7.45;77.85
33422;BME280;19763;55.798;37.782;2022-12-08T09:31:03;99936.81;;;-7.41;78.50
33422;BME280;19763;55.798;37.782;2022-12-08T09:33:29;99943.81;;;-7.35;78.00
33422;BME280;19763;55.798;37.782;2022-12-08T09:35:54;99934.25;;;-7.26;78.04
33422;BME280;19763;55.798;37.782;2022-12-08T09:38:20;99930.56;;;-7.16;77.80
33422;BME280;19763;55.798;37.782;2022-12-08T09:40:53;99934.81;;;-7.15;77.00
33422;BME280;19763;55.798;37.782;2022-12-08T09:46:08;99924.69;;;-7.17;76.84
33422;BME280;19763;55.798;37.782;2022-12-08T09:48:38;99907.56;;;-7.39;77.11
33422;BME280;19763;55.798;37.782;2022-12-08T09:51:05;99918.09;;;-7.30;77.53
33422;BME280;19763;55.798;37.782;2022-12-08T09:53:38;99901.16;;;-7.17;77.86
33422;BME280;19763;55.798;37.782;2022-12-08T09:56:18;99899.53;;;-7.17;77.43
33422;BME280;19763;55.798;37.782;2022-12-08T09:58:52;99900.56;;;-6.97;76.63
33422;BME280;19763;55.798;37.782;2022-12-08T10:01:22;99913.16;;;-6.97;77.26
33422;BME280;19763;55.798;37.782;2022-12-08T10:03:48;99912.06;;;-6.85;77.58
33422;BME280;19763;55.798;37.782;2022-12-08T10:16:47;99895.84;;;-6.90;78.70
33422;BME280;19763;55.798;37.782;2022-12-08T10:21:43;99912.34;;;-7.12;79.33
33422;BME280;19763;55.798;37.782;2022-12-08T10:24:24;99900.88;;;-6.90;79.89
33422;BME280;19763;55.798;37.782;2022-12-08T10:26:52;99917.56;;;-6.92;78.73
33422;BME280;19763;55.798;37.782;2022-12-08T10:29:18;99914.88;;;-6.79;79.19
33422;BME280;19763;55.798;37.782;2022-12-08T10:31:44;99913.38;;;-6.76;78.59
33422;BME280;19763;55.798;37.782;2022-12-08T10:34:21;99911.78;;;-6.90;78.58
33422;BME280;19763;55.798;37.782;2022-12-08T10:36:54;99915.09;;;-6.74;78.11
33422;BME280;19763;55.798;37.782;2022-12-08T10:39:40;99942.47;;;-6.97;77.66
33422;BME280;19763;55.798;37.782;2022-12-08T10:45:01;99911.19;;;-7.02;77.71
33422;BME280;19763;55.798;37.782;2022-12-08T10:47:37;99911.19;;;-7.02;78.93
33422;BME280;19763;55.798;37.782;2022-12-08T10:52:38;99890.00;;;-7.06;79.87
33422;BME280;19763;55.798;37.782;2022-12-08T10:55:16;99902.44;;;-7.09;79.45
33422;BME280;19763;55.798;37.782;2022-12-08T10:57:42;99941.88;;;-7.24;79.84
33422;BME280;19763;55.798;37.782;2022-12-08T11:00:17;99890.53;;;-7.28;80.86
33422;BME280;19763;55.798;37.782;2022-12-08T11:02:53;99895.56;;;-7.12;81.07
33422;BME280;19763;55.798;37.782;2022-12-08T11:05:20;99915.94;;;-7.07;81.87
33422;BME280;19763;55.798;37.782;2022-12-08T11:07:51;99904.94;;;-7.09;82.27
33422;BME280;19763;55.798;37.782;2022-12-08T11:10:20;99929.56;;;-7.03;81.13
33422;BME280;19763;55.798;37.782;2022-12-08T11:12:51;99918.25;;;-6.95;81.17
33422;BME280;19763;55.798;37.782;2022-12-08T11:15:16;99918.41;;;-6.92;81.46
33422;BME280;19763;55.798;37.782;2022-12-08T11:17:43;99913.94;;;-6.98;81.37
33422;BME280;19763;55.798;37.782;2022-12-08T11:22:45;99890.00;;;-7.06;81.13
33422;BME280;19763;55.798;37.782;2022-12-08T11:25:17;99917.75;;;-7.04;80.78
33422;BME280;19763;55.798;37.782;2022-12-08T11:27:46;99898.13;;;-6.95;81.66
33422;BME280;19763;55.798;37.782;2022-12-08T11:30:22;99898.75;;;-6.83;81.17
33422;BME280;19763;55.798;37.782;2022-12-08T11:32:51;99881.75;;;-7.03;79.47
33422;BME280;19763;55.798;37.782;2022-12-08T11:35:23;99870.09;;;-7.01;79.75
33422;BME280;19763;55.798;37.782;2022-12-08T11:37:49;99896.84;;;-6.70;80.69
33422;BME280;19763;55.798;37.782;2022-12-08T11:40:20;99894.59;;;-6.82;79.10
33422;BME280;19763;55.798;37.782;2022-12-08T11:43:07;99888.19;;;-6.59;80.35
33422;BME280;19763;55.798;37.782;2022-12-08T11:45:37;99882.59;;;-6.70;79.69
33422;BME280;19763;55.798;37.782;2022-12-08T11:50:50;99905.59;;;-6.64;79.89
33422;BME280;19763;55.798;37.782;2022-12-08T11:56:39;99907.88;;;-6.52;79.20
33422;BME280;19763;55.798;37.782;2022-12-08T12:02:15;99891.25;;;-6.81;79.46
33422;BME280;19763;55.798;37.782;2022-12-08T12:05:04;99921.00;;;-6.57;80.58
33422;BME280;19763;55.798;37.782;2022-12-08T12:10:32;99900.31;;;-6.52;80.72
33422;BME280;19763;55.798;37.782;2022-12-08T12:21:39;99886.72;;;-6.55;79.60
33422;BME280;19763;55.798;37.782;2022-12-08T12:24:18;99915.41;;;-6.52;80.56
33422;BME280;19763;55.798;37.782;2022-12-08T12:29:34;99897.53;;;-6.40;78.97
33422;BME280;19763;55.798;37.782;2022-12-08T12:32:03;99920.59;;;-6.49;80.63
33422;BME280;19763;55.798;37.782;2022-12-08T12:34:54;99915.72;;;-6.46;80.07
33422;BME280;19763;55.798;37.782;2022-12-08T12:37:21;99893.16;;;-6.61;80.28
33422;BME280;19763;55.798;37.782;2022-12-08T12:42:42;99921.78;;;-6.42;79.63
33422;BME280;19763;55.798;37.782;2022-12-08T12:45:25;99929.66;;;-6.36;80.52
33422;BME280;19763;55.798;37.782;2022-12-08T12:52:59;99910.31;;;-6.70;81.52
33422;BME280;19763;55.798;37.782;2022-12-08T12:56:13;99936.53;;;-6.50;81.14
33422;BME280;19763;55.798;37.782;2022-12-08T12:58:20;99934.56;;;-6.55;80.18
33422;BME280;19763;55.798;37.782;2022-12-08T13:00:46;99921.94;;;-6.39;81.01
33422;BME280;19763;55.798;37.782;2022-12-08T13:03:16;99927.53;;;-6.45;81.21
33422;BME280;19763;55.798;37.782;2022-12-08T13:05:49;99918.72;;;-6.36;80.17
33422;BME280;19763;55.798;37.782;2022-12-08T13:08:22;99938.94;;;-6.18;79.61
33422;BME280;19763;55.798;37.782;2022-12-08T13:10:58;99911.88;;;-6.39;81.33
33422;BME280;19763;55.798;37.782;2022-12-08T13:13:25;99937.41;;;-6.15;80.60
33422;BME280;19763;55.798;37.782;2022-12-08T13:16:00;99939.22;;;-6.12;81.34
33422;BME280;19763;55.798;37.782;2022-12-08T13:18:36;99940.91;;;-6.13;81.31
33422;BME280;19763;55.798;37.782;2022-12-08T13:26:29;99949.31;;;-6.12;80.08
33422;BME280;19763;55.798;37.782;2022-12-08T13:39:45;99924.09;;;-6.12;79.88
33422;BME280;19763;55.798;37.782;2022-12-08T13:44:47;99940.63;;;-6.01;80.36
33422;BME280;19763;55.798;37.782;2022-12-08T13:47:20;99943.22;;;-5.99;79.61
33422;BME280;19763;55.798;37.782;2022-12-08T13:52:37;99930.00;;;-6.12;79.03
33422;BME280;19763;55.798;37.782;2022-12-08T13:55:19;99923.41;;;-6.10;79.28
33422;BME280;19763;55.798;37.782;2022-12-08T13:57:50;99942.91;;;-5.87;78.93
33422;BME280;19763;55.798;37.782;2022-12-08T14:00:18;99927.63;;;-6.09;79.88
33422;BME280;19763;55.798;37.782;2022-12-08T14:02:47;99942.19;;;-6.03;79.75
33422;BME280;19763;55.798;37.782;2022-12-08T14:05:16;99934.25;;;-6.11;79.36
33422;BME280;19763;55.798;37.782;2022-12-08T14:07:43;99928.81;;;-5.84;79.15
33422;BME280;19763;55.798;37.782;2022-12-08T14:10:17;99939.66;;;-6.03;79.04
33422;BME280;19763;55.798;37.782;2022-12-08T14:12:46;99929.22;;;-5.93;79.08
33422;BME280;19763;55.798;37.782;2022-12-08T14:15:13;99919.84;;;-5.95;79.26
33422;BME280;19763;55.798;37.782;2022-12-08T14:17:40;99935.19;;;-5.91;80.26
33422;BME280;19763;55.798;37.782;2022-12-08T14:20:43;99936.94;;;-5.72;79.15
33422;BME280;19763;55.798;37.782;2022-12-08T14:23:09;99932.09;;;-6.03;80.04
33422;BME280;19763;55.798;37.782;2022-12-08T14:25:34;99938.09;;;-6.01;80.26
33422;BME280;19763;55.798;37.782;2022-12-08T14:28:02;99946.94;;;-5.91;79.73
33422;BME280;19763;55.798;37.782;2022-12-08T14:30:33;99935.41;;;-5.86;79.56
33422;BME280;19763;55.798;37.782;2022-12-08T14:33:03;99929.88;;;-5.97;80.02
33422;BME280;19763;55.798;37.782;2022-12-08T14:35:34;99956.91;;;-5.76;79.84
33422;BME280;19763;55.798;37.782;2022-12-08T14:38:04;99960.78;;;-5.83;80.15